Time;durP1;ratioP1;P1;durP2;ratioP2;P2;SDS_P1;SDS_P2;PMS_P1;PMS_P2;Temp;Humidity;BMP_temperature;BMP_pressure;BME280_temperature;BME280_humidity;BME280_pressure;Samples;Min_cycle;Max_cycle;Signal;HPM_P1;HPM_P2
2022/04/13 00:01:59;;;;;;;7.88;3.80;;;;;;;5.11;87.08;95254.59;5070255;28;20066;-76
2022/04/13 00:04:25;;;;;;;7.15;3.67;;;;;;;5.13;87.01;95249.13;5087973;28;20047;-75
2022/04/13 00:06:50;;;;;;;6.03;3.90;;;;;;;5.17;86.87;95260.66;5095475;28;20420;-76
2022/04/13 00:09:16;;;;;;;9.73;4.28;;;;;;;5.08;87.40;95254.31;5090446;28;20137;-75
2022/04/13 00:11:41;;;;;;;8.40;4.07;;;;;;;5.00;88.08;95253.69;5100098;28;20044;-76
2022/04/13 00:14:07;;;;;;;6.32;3.92;;;;;;;5.00;88.69;95248.47;5073451;28;20048;-76
2022/04/13 00:16:32;;;;;;;13.90;4.30;;;;;;;5.05;88.41;95265.22;5079114;28;20054;-76
2022/04/13 00:18:58;;;;;;;9.00;4.15;;;;;;;4.97;89.01;95256.78;5091758;28;20139;-76
2022/04/13 00:21:23;;;;;;;13.98;4.45;;;;;;;4.94;89.17;95254.66;5100246;28;20040;-76
2022/04/13 00:23:49;;;;;;;6.25;3.70;;;;;;;5.02;89.18;95256.81;5072765;28;20097;-76
2022/04/13 00:26:15;;;;;;;7.50;3.88;;;;;;;4.96;88.46;95259.63;5092387;28;20036;-76
2022/04/13 00:28:41;;;;;;;8.40;3.78;;;;;;;4.88;88.50;95260.81;5077793;28;20039;-76
2022/04/13 00:31:07;;;;;;;10.27;3.92;;;;;;;4.81;89.29;95260.19;5111156;28;20046;-76
2022/04/13 00:33:33;;;;;;;9.77;4.32;;;;;;;4.82;90.50;95256.56;5111433;28;20043;-77
2022/04/13 00:35:59;;;;;;;9.73;4.32;;;;;;;4.83;89.52;95251.09;5093734;28;20048;-76
2022/04/13 00:38:25;;;;;;;10.40;4.25;;;;;;;4.76;89.51;95253.06;5110294;28;20043;-76
2022/04/13 00:40:51;;;;;;;8.95;4.05;;;;;;;4.82;89.68;95251.34;5076997;28;20794;-76
2022/04/13 00:43:16;;;;;;;9.15;4.30;;;;;;;4.68;89.99;95251.66;5108581;28;20043;-76
2022/04/13 00:45:46;;;;;;;9.50;4.15;;;;;;;4.56;90.27;95263.19;5099638;28;20036;-76
2022/04/13 00:48:31;;;;;;;7.40;3.92;;;;;;;4.53;90.25;95261.84;5092436;28;20047;-76
2022/04/13 00:50:57;;;;;;;8.38;4.20;;;;;;;4.50;90.72;95264.94;5091066;28;20040;-76
2022/04/13 00:53:24;;;;;;;8.43;4.30;;;;;;;4.45;90.85;95272.66;5094604;28;20044;-76
2022/04/13 00:55:53;;;;;;;7.45;3.90;;;;;;;4.39;91.46;95269.19;5105478;28;20052;-76
2022/04/13 00:58:22;;;;;;;7.00;4.00;;;;;;;4.36;91.11;95266.28;5110289;28;20414;-76
2022/04/13 01:00:49;;;;;;;10.10;4.38;;;;;;;4.30;91.33;95276.59;5110690;28;20172;-76
2022/04/13 01:03:20;;;;;;;9.77;4.32;;;;;;;4.29;91.99;95275.00;5073688;28;20835;-77
2022/04/13 01:05:47;;;;;;;7.07;4.03;;;;;;;4.26;91.96;95280.69;5094052;27;20036;-77
2022/04/13 01:08:13;;;;;;;9.13;4.13;;;;;;;4.26;91.86;95274.69;5079190;28;20036;-76
2022/04/13 01:10:44;;;;;;;7.80;4.30;;;;;;;4.25;91.58;95273.91;5092281;28;20094;-76
2022/04/13 01:13:11;;;;;;;7.18;3.83;;;;;;;4.22;92.04;95282.19;5075180;28;20093;-76
2022/04/13 01:15:37;;;;;;;7.75;4.20;;;;;;;4.23;92.21;95283.78;5097422;28;20066;-76
2022/04/13 01:18:03;;;;;;;8.43;4.13;;;;;;;4.11;92.39;95275.25;5105699;28;20516;-76
2022/04/13 01:20:29;;;;;;;9.45;4.65;;;;;;;4.12;92.27;95284.59;5093161;28;20040;-76
2022/04/13 01:22:54;;;;;;;11.95;4.53;;;;;;;4.08;92.12;95288.69;5090113;28;20047;-76
2022/04/13 01:25:20;;;;;;;10.35;4.22;;;;;;;4.02;92.67;95279.22;5094161;28;20486;-76
2022/04/13 01:27:46;;;;;;;7.97;4.20;;;;;;;3.93;93.03;95284.78;5099709;28;20044;-76
2022/04/13 01:30:12;;;;;;;10.57;4.78;;;;;;;3.99;92.94;95286.50;5101925;28;20063;-76
2022/04/13 01:32:38;;;;;;;10.88;4.28;;;;;;;3.98;92.53;95284.91;5090451;28;20494;-75
2022/04/13 01:35:04;;;;;;;10.55;4.15;;;;;;;3.98;93.11;95290.09;5072391;28;20076;-75
2022/04/13 01:37:30;;;;;;;9.77;4.18;;;;;;;3.98;93.03;95279.69;5103721;28;20043;-76
2022/04/13 01:39:55;;;;;;;12.02;4.93;;;;;;;3.92;92.88;95291.06;5097384;28;20507;-76
2022/04/13 01:42:22;;;;;;;9.85;4.70;;;;;;;3.89;93.43;95288.88;5091571;28;20047;-76
2022/04/13 01:44:52;;;;;;;8.98;3.88;;;;;;;3.84;93.70;95294.00;5104309;28;20765;-76
2022/04/13 01:47:17;;;;;;;9.07;4.40;;;;;;;3.87;93.05;95287.56;5090300;28;20043;-76
2022/04/13 01:49:43;;;;;;;9.35;4.93;;;;;;;3.69;93.39;95291.09;5072110;28;20051;-76
2022/04/13 01:52:11;;;;;;;9.55;4.63;;;;;;;3.70;95.35;95295.31;5095212;28;20039;-76
2022/04/13 01:54:37;;;;;;;12.35;4.70;;;;;;;3.70;94.22;95293.47;5084667;28;20055;-76
2022/04/13 01:57:03;;;;;;;7.13;4.20;;;;;;;3.78;94.04;95300.16;5104181;28;20035;-76
2022/04/13 01:59:29;;;;;;;12.82;4.43;;;;;;;3.74;93.41;95305.00;5098181;28;20123;-76
2022/04/13 02:01:55;;;;;;;8.05;4.55;;;;;;;3.63;94.75;95293.63;5092461;28;20047;-77
2022/04/13 02:04:27;;;;;;;8.10;3.83;;;;;;;3.64;94.82;95294.41;5083195;28;20417;-77
2022/04/13 02:06:54;;;;;;;8.15;4.30;;;;;;;3.67;94.62;95293.16;5090833;28;20173;-76
2022/04/13 02:09:19;;;;;;;11.10;4.70;;;;;;;3.66;94.23;95291.56;5086884;28;20122;-76
2022/04/13 02:11:46;;;;;;;11.40;4.68;;;;;;;3.61;94.36;95290.44;5110506;28;20041;-76
2022/04/13 02:14:12;;;;;;;9.27;4.93;;;;;;;3.51;94.34;95285.03;5091240;28;20838;-76
2022/04/13 02:16:39;;;;;;;9.50;4.78;;;;;;;3.45;94.48;95285.97;5105557;28;20516;-76
2022/04/13 02:19:07;;;;;;;12.75;4.88;;;;;;;3.42;94.62;95286.41;5108115;28;20052;-77
2022/04/13 02:21:33;;;;;;;8.48;4.13;;;;;;;3.37;95.54;95283.72;5099313;28;20047;-77
2022/04/13 02:23:59;;;;;;;10.15;5.35;;;;;;;3.36;95.65;95276.94;5102820;28;20105;-76
2022/04/13 02:26:25;;;;;;;8.43;4.80;;;;;;;3.36;95.06;95271.72;5104364;28;20051;-77
2022/04/13 02:28:51;;;;;;;8.95;4.88;;;;;;;3.37;94.51;95278.50;5107797;28;20493;-76
2022/04/13 02:31:17;;;;;;;10.90;4.38;;;;;;;3.38;94.81;95269.69;5109263;28;20035;-77
2022/04/13 02:33:43;;;;;;;8.52;4.85;;;;;;;3.37;95.29;95273.31;5105785;28;20041;-76
2022/04/13 02:36:08;;;;;;;10.80;4.65;;;;;;;3.26;95.33;95277.50;5082828;28;20054;-76
2022/04/13 02:38:34;;;;;;;13.45;4.72;;;;;;;3.15;95.36;95276.50;5092721;28;20044;-76
2022/04/13 02:40:59;;;;;;;10.05;5.20;;;;;;;3.14;95.91;95280.13;5090243;28;20047;-77
2022/04/13 02:43:27;;;;;;;11.50;4.88;;;;;;;3.12;96.19;95271.78;5083230;28;20092;-76
2022/04/13 02:45:54;;;;;;;10.88;5.45;;;;;;;3.12;95.98;95271.78;5087239;28;20051;-77
2022/04/13 02:48:20;;;;;;;8.23;4.78;;;;;;;3.12;95.84;95269.16;5081785;28;20035;-77
2022/04/13 02:50:46;;;;;;;9.82;4.95;;;;;;;3.09;96.01;95278.22;5091142;28;20047;-77
2022/04/13 02:53:12;;;;;;;10.40;5.13;;;;;;;3.07;96.79;95269.03;5089191;28;20044;-76
2022/04/13 02:55:37;;;;;;;9.50;4.82;;;;;;;3.20;96.09;95276.59;5094875;28;20039;-75
2022/04/13 02:58:03;;;;;;;11.57;5.00;;;;;;;3.03;96.34;95273.13;5101204;28;20047;-75
2022/04/13 03:00:29;;;;;;;11.57;4.88;;;;;;;3.16;96.39;95272.91;5080130;28;20039;-75
2022/04/13 03:02:55;;;;;;;8.45;4.82;;;;;;;3.09;96.44;95272.22;5104950;28;20097;-77
2022/04/13 03:05:20;;;;;;;11.38;4.72;;;;;;;3.06;96.43;95277.84;5089125;28;20036;-77
2022/04/13 03:07:46;;;;;;;10.02;5.15;;;;;;;3.10;97.20;95268.59;5095071;28;20040;-77
2022/04/13 03:10:11;;;;;;;11.40;4.97;;;;;;;3.07;96.91;95279.44;5091618;28;20558;-77
2022/04/13 03:12:37;;;;;;;9.80;4.80;;;;;;;2.93;97.84;95274.50;5071735;28;20758;-77
2022/04/13 03:15:05;;;;;;;10.05;4.90;;;;;;;2.86;97.79;95276.41;5088996;28;20097;-77
2022/04/13 03:17:33;;;;;;;10.93;4.78;;;;;;;3.00;97.38;95273.56;5090200;28;20036;-74
2022/04/13 03:20:00;;;;;;;8.48;4.85;;;;;;;3.00;96.89;95281.38;5092276;28;20437;-74
2022/04/13 03:22:25;;;;;;;16.02;5.50;;;;;;;2.85;97.21;95277.41;5091105;28;20106;-77
2022/04/13 03:24:51;;;;;;;11.13;5.32;;;;;;;2.90;97.89;95280.16;5088797;28;20456;-77
2022/04/13 03:27:18;;;;;;;10.15;4.85;;;;;;;2.94;97.92;95275.28;5078680;28;20562;-76
2022/04/13 03:29:43;;;;;;;11.85;5.10;;;;;;;2.97;97.62;95279.22;5089322;28;20105;-76
2022/04/13 03:32:09;;;;;;;11.43;5.05;;;;;;;2.77;98.42;95280.34;5084615;28;20052;-76
2022/04/13 03:34:35;;;;;;;8.40;5.00;;;;;;;2.74;98.67;95280.81;5101994;28;20075;-76
2022/04/13 03:37:01;;;;;;;8.65;5.05;;;;;;;2.86;98.25;95281.63;5092247;28;20032;-76
2022/04/13 03:39:27;;;;;;;13.15;5.15;;;;;;;2.65;97.70;95280.34;5088736;28;20066;-76
2022/04/13 03:41:53;;;;;;;9.68;5.20;;;;;;;2.77;97.74;95275.97;5092473;28;20039;-76
2022/04/13 03:44:19;;;;;;;11.13;5.47;;;;;;;2.82;97.20;95285.66;5101363;28;20040;-76
2022/04/13 03:46:44;;;;;;;11.05;5.38;;;;;;;2.75;97.22;95282.41;5090419;28;20044;-76
2022/04/13 03:49:10;;;;;;;9.45;5.35;;;;;;;2.71;97.50;95281.25;5093745;28;20443;-76
2022/04/13 03:51:36;;;;;;;10.98;5.63;;;;;;;2.60;98.35;95282.81;5095904;28;20047;-76
2022/04/13 03:54:02;;;;;;;12.68;5.53;;;;;;;2.70;97.64;95295.25;5106952;28;20463;-76
2022/04/13 03:56:29;;;;;;;13.75;5.55;;;;;;;2.65;98.07;95289.97;5106107;28;20040;-76
2022/04/13 03:58:58;;;;;;;14.40;5.63;;;;;;;2.63;97.78;95294.56;5092440;28;20066;-76
2022/04/13 04:01:24;;;;;;;11.80;5.55;;;;;;;2.64;98.39;95301.34;5110372;28;20044;-76
2022/04/13 04:03:50;;;;;;;10.73;5.68;;;;;;;2.58;97.83;95297.84;5100162;28;20390;-76
2022/04/13 04:06:15;;;;;;;11.55;5.90;;;;;;;2.49;98.78;95305.16;5111691;28;20055;-76
2022/04/13 04:08:41;;;;;;;15.73;5.68;;;;;;;2.50;98.71;95301.56;5106345;28;20040;-76
2022/04/13 04:11:06;;;;;;;13.13;6.18;;;;;;;2.51;98.02;95303.13;5109679;28;20046;-76
2022/04/13 04:13:32;;;;;;;11.48;6.00;;;;;;;2.59;98.43;95299.44;5088761;28;20036;-77
2022/04/13 04:15:59;;;;;;;12.82;5.30;;;;;;;2.52;98.49;95303.94;5075532;28;20530;-76
2022/04/13 04:18:25;;;;;;;13.85;6.20;;;;;;;2.43;98.57;95300.88;5091651;28;20051;-76
2022/04/13 04:20:50;;;;;;;12.55;5.78;;;;;;;2.39;99.08;95315.31;5091998;28;20493;-76
2022/04/13 04:23:16;;;;;;;16.02;6.10;;;;;;;2.36;98.47;95315.78;5093887;28;20047;-77
2022/04/13 04:25:42;;;;;;;18.77;6.00;;;;;;;2.40;99.34;95306.53;5106844;28;20054;-77
2022/04/13 04:28:10;;;;;;;16.77;6.35;;;;;;;2.51;99.09;95313.53;5086932;28;20044;-75
2022/04/13 04:30:36;;;;;;;15.02;6.75;;;;;;;2.38;99.75;95308.53;5097929;28;20520;-76
2022/04/13 04:33:01;;;;;;;14.63;6.50;;;;;;;2.40;99.19;95309.13;5099210;28;20600;-76
2022/04/13 04:35:27;;;;;;;10.88;5.40;;;;;;;2.47;98.27;95312.41;5090625;28;20098;-76
2022/04/13 04:37:52;;;;;;;15.73;6.07;;;;;;;2.48;98.87;95313.97;5091577;28;20516;-76
2022/04/13 04:40:18;;;;;;;14.63;6.15;;;;;;;2.45;98.97;95319.63;5095310;28;20031;-77
2022/04/13 04:42:48;;;;;;;12.73;6.35;;;;;;;2.35;99.81;95324.56;5101315;28;20043;-76
2022/04/13 04:45:18;;;;;;;13.60;6.50;;;;;;;2.30;100.00;95316.63;5089011;28;20484;-77
2022/04/13 04:47:43;;;;;;;9.98;5.47;;;;;;;2.37;99.88;95317.31;5093316;28;20047;-77
2022/04/13 04:50:12;;;;;;;14.82;6.68;;;;;;;2.32;100.00;95325.00;5093245;28;20706;-77
2022/04/13 04:52:42;;;;;;;13.98;7.00;;;;;;;2.40;100.00;95327.28;5106389;28;20039;-77
2022/04/13 04:55:12;;;;;;;14.93;6.78;;;;;;;2.44;100.00;95323.22;5091728;28;20118;-77
2022/04/13 04:57:38;;;;;;;17.02;7.13;;;;;;;2.50;100.00;95327.53;5090180;28;20039;-77
2022/04/13 05:00:07;;;;;;;15.40;7.15;;;;;;;2.58;100.00;95327.19;5074293;28;20115;-77
2022/04/13 05:02:32;;;;;;;16.55;6.95;;;;;;;2.65;99.17;95328.94;5092043;28;20227;-77
2022/04/13 05:04:58;;;;;;;15.75;6.72;;;;;;;2.73;99.19;95332.00;5105326;28;20117;-77
2022/04/13 05:07:23;;;;;;;23.42;7.55;;;;;;;2.74;99.06;95332.78;5106911;28;20046;-77
2022/04/13 05:09:49;;;;;;;17.52;8.00;;;;;;;2.74;100.00;95338.78;5095758;28;20561;-78
2022/04/13 05:12:14;;;;;;;15.27;7.22;;;;;;;2.84;99.31;95340.81;5092595;28;20039;-78
2022/04/13 05:14:40;;;;;;;14.77;7.88;;;;;;;2.92;99.55;95340.47;5090956;28;20058;-76
2022/04/13 05:17:05;;;;;;;15.35;7.93;;;;;;;2.97;98.53;95352.81;5074247;28;20046;-77
2022/04/13 05:19:33;;;;;;;21.67;8.10;;;;;;;2.95;99.82;95334.81;5082366;28;20049;-76
2022/04/13 05:21:58;;;;;;;17.42;7.65;;;;;;;3.03;99.77;95336.31;5110826;28;20107;-76
2022/04/13 05:24:24;;;;;;;19.48;8.35;;;;;;;3.24;99.62;95341.97;5099586;28;20131;-77
2022/04/13 05:26:50;;;;;;;18.92;7.72;;;;;;;3.37;99.26;95340.94;5099757;28;20058;-77
2022/04/13 05:29:15;;;;;;;18.45;7.45;;;;;;;3.43;100.00;95340.03;5101137;28;20046;-77
2022/04/13 05:31:41;;;;;;;18.15;8.05;;;;;;;3.52;99.42;95341.28;5105587;28;20631;-77
2022/04/13 05:34:08;;;;;;;23.50;8.50;;;;;;;3.62;99.47;95341.47;5093090;28;20055;-77
2022/04/13 05:36:34;;;;;;;21.70;8.38;;;;;;;3.68;99.91;95346.78;5089998;28;20093;-77
2022/04/13 05:38:59;;;;;;;18.30;7.70;;;;;;;3.79;99.83;95340.75;5099478;28;20484;-77
2022/04/13 05:41:25;;;;;;;27.98;8.93;;;;;;;3.87;99.01;95345.59;5090643;28;20048;-76
2022/04/13 05:43:50;;;;;;;21.48;8.68;;;;;;;4.02;99.21;95346.94;5108143;28;20549;-77
2022/04/13 05:46:16;;;;;;;38.05;10.07;;;;;;;4.25;98.51;95346.84;5104134;28;20039;-77
2022/04/13 05:48:41;;;;;;;29.17;8.93;;;;;;;4.38;98.11;95347.56;5087781;28;20040;-74
2022/04/13 05:51:09;;;;;;;30.80;9.20;;;;;;;4.45;98.14;95350.84;5073519;28;20047;-78
2022/04/13 05:53:37;;;;;;;21.75;8.38;;;;;;;4.62;97.32;95356.84;5095811;28;20039;-77
2022/04/13 05:56:03;;;;;;;24.25;8.85;;;;;;;4.78;96.81;95359.72;5104273;27;20105;-77
2022/04/13 05:58:29;;;;;;;19.92;8.82;;;;;;;4.92;96.35;95365.44;5091826;28;20398;-78
2022/04/13 06:00:55;;;;;;;15.60;7.15;;;;;;;5.04;97.02;95376.56;5097678;28;20421;-77
2022/04/13 06:03:22;;;;;;;16.55;7.70;;;;;;;5.22;96.35;95369.53;5088502;28;20093;-76
2022/04/13 06:05:48;;;;;;;15.88;7.78;;;;;;;5.22;96.62;95375.53;5081467;28;20058;-76
2022/04/13 06:08:14;;;;;;;13.40;6.47;;;;;;;5.25;97.18;95377.69;5099414;28;20039;-71
2022/04/13 06:10:40;;;;;;;13.35;6.38;;;;;;;5.36;96.74;95376.78;5102834;28;20099;-76
2022/04/13 06:13:06;;;;;;;14.75;6.15;;;;;;;5.50;95.78;95374.66;5082094;28;20092;-74
2022/04/13 06:15:32;;;;;;;13.52;5.88;;;;;;;5.57;96.35;95382.28;5107934;27;20357;-73
2022/04/13 06:17:58;;;;;;;13.10;5.32;;;;;;;5.57;97.16;95382.28;5109530;27;20046;-76
2022/04/13 06:20:23;;;;;;;14.48;4.97;;;;;;;5.71;95.36;95385.34;5089787;28;20044;-75
2022/04/13 06:22:49;;;;;;;12.80;4.70;;;;;;;5.81;95.44;95382.09;5087665;28;20043;-77
2022/04/13 06:25:15;;;;;;;9.70;4.75;;;;;;;5.86;95.10;95385.56;5103509;28;20039;-75
2022/04/13 06:27:40;;;;;;;10.68;4.85;;;;;;;5.84;97.04;95386.84;5100669;27;20152;-75
2022/04/13 06:30:08;;;;;;;13.35;4.40;;;;;;;5.95;95.70;95383.31;5098007;28;20035;-75
2022/04/13 06:32:35;;;;;;;16.33;4.88;;;;;;;6.09;96.88;95382.97;5108459;27;20056;-74
2022/04/13 06:35:02;;;;;;;9.55;4.28;;;;;;;6.27;95.19;95380.06;5091099;28;20074;-77
2022/04/13 06:37:28;;;;;;;8.43;4.30;;;;;;;6.31;95.48;95381.16;5096470;27;20497;-76
2022/04/13 06:39:53;;;;;;;9.02;3.95;;;;;;;6.36;94.95;95386.41;5089273;28;20054;-75
2022/04/13 06:42:22;;;;;;;8.77;4.28;;;;;;;6.50;94.14;95383.44;5073100;28;20047;-78
2022/04/13 06:44:54;;;;;;;7.53;4.00;;;;;;;6.50;95.92;95383.44;5100553;28;20046;-74
2022/04/13 06:47:20;;;;;;;11.98;4.45;;;;;;;6.53;96.15;95378.47;5107467;28;20499;-75
2022/04/13 06:49:46;;;;;;;11.10;4.70;;;;;;;6.67;94.92;95383.34;5090294;28;20516;-79
2022/04/13 06:52:13;;;;;;;8.75;4.40;;;;;;;6.82;94.36;95385.28;5093843;28;20093;-76
2022/04/13 06:54:39;;;;;;;15.85;5.10;;;;;;;6.88;94.99;95379.06;5100905;28;20039;-76
2022/04/13 06:57:04;;;;;;;9.35;4.45;;;;;;;7.05;94.20;95378.94;5097631;28;20087;-74
2022/04/13 06:59:29;;;;;;;11.93;4.80;;;;;;;7.31;92.69;95379.91;5109575;28;20124;-73
2022/04/13 07:01:55;;;;;;;9.20;4.72;;;;;;;7.41;92.94;95377.41;5080200;28;20523;-73
2022/04/13 07:04:21;;;;;;;9.75;4.47;;;;;;;7.46;92.88;95380.03;5088175;28;20040;-74
2022/04/13 07:06:46;;;;;;;11.43;5.22;;;;;;;7.56;93.19;95378.53;5089093;28;20040;-75
2022/04/13 07:09:12;;;;;;;10.57;5.13;;;;;;;7.70;91.55;95377.03;5088816;28;20391;-74
2022/04/13 07:11:38;;;;;;;13.88;5.15;;;;;;;8.03;87.84;95377.72;5089130;28;20670;-77
2022/04/13 07:14:03;;;;;;;15.38;4.57;;;;;;;8.16;89.25;95381.72;5100236;28;20078;-71
2022/04/13 07:16:29;;;;;;;9.38;4.28;;;;;;;8.28;87.21;95381.47;5091367;28;20047;-77
2022/04/13 07:18:54;;;;;;;7.85;4.65;;;;;;;8.60;85.24;95383.94;5107406;28;20477;-73
2022/04/13 07:21:20;;;;;;;8.52;4.70;;;;;;;8.74;84.18;95375.59;5103219;28;20124;-74
2022/04/13 07:23:45;;;;;;;7.50;4.55;;;;;;;8.80;86.50;95385.81;5100240;28;20040;-73
2022/04/13 07:26:12;;;;;;;8.27;4.50;;;;;;;8.83;86.64;95380.06;5097712;28;20580;-73
2022/04/13 07:28:38;;;;;;;9.48;4.38;;;;;;;9.05;83.14;95386.91;5074800;28;20082;-74
2022/04/13 07:31:04;;;;;;;10.88;4.50;;;;;;;9.17;84.49;95389.25;5092906;28;20047;-73
2022/04/13 07:33:30;;;;;;;13.23;4.80;;;;;;;9.22;86.16;95380.59;5106626;28;20093;-76
2022/04/13 07:35:56;;;;;;;8.63;4.25;;;;;;;9.36;84.27;95386.88;5102429;28;20035;-78
2022/04/13 07:38:21;;;;;;;12.73;5.18;;;;;;;9.35;84.14;95385.28;5093057;28;20124;-74
2022/04/13 07:40:47;;;;;;;14.48;4.82;;;;;;;9.46;84.90;95386.88;5107473;28;20051;-76
2022/04/13 07:43:14;;;;;;;9.65;4.90;;;;;;;9.60;84.39;95391.59;5101663;28;20119;-76
2022/04/13 07:45:39;;;;;;;7.03;4.40;;;;;;;9.73;82.96;95391.03;5096165;28;20051;-76
2022/04/13 07:48:05;;;;;;;13.02;4.45;;;;;;;10.10;79.39;95389.88;5074453;28;20044;-76
2022/04/13 07:50:31;;;;;;;8.68;4.30;;;;;;;10.43;79.38;95390.28;5074405;28;20036;-77
2022/04/13 07:52:57;;;;;;;14.63;5.22;;;;;;;10.94;77.03;95389.19;5092337;28;20044;-77
2022/04/13 07:55:23;;;;;;;9.68;4.60;;;;;;;11.28;72.95;95385.78;5098789;28;20135;-77
2022/04/13 07:57:49;;;;;;;11.25;4.45;;;;;;;11.30;72.87;95393.41;5106707;28;20412;-74
2022/04/13 08:00:15;;;;;;;9.35;4.97;;;;;;;11.09;73.64;95388.28;5078532;28;20122;-78
2022/04/13 08:02:42;;;;;;;10.02;4.97;;;;;;;11.03;75.48;95389.41;5101079;28;20205;-76
2022/04/13 08:05:08;;;;;;;12.68;4.97;;;;;;;11.41;72.91;95394.91;5093082;28;20039;-78
2022/04/13 08:07:34;;;;;;;18.20;5.40;;;;;;;11.60;72.90;95390.50;5091971;28;20040;-76
2022/04/13 08:09:59;;;;;;;7.97;4.75;;;;;;;11.98;69.76;95394.38;5091804;28;20056;-76
2022/04/13 08:12:28;;;;;;;8.40;4.65;;;;;;;12.27;67.80;95389.03;5087226;28;20036;-76
2022/04/13 08:14:54;;;;;;;10.80;5.03;;;;;;;12.08;72.20;95387.16;5103458;28;20112;-76
2022/04/13 08:17:19;;;;;;;8.68;4.40;;;;;;;11.93;72.64;95395.19;5094386;28;20517;-77
2022/04/13 08:19:45;;;;;;;11.82;4.82;;;;;;;11.61;71.84;95384.16;5112406;28;20043;-78
2022/04/13 08:22:10;;;;;;;12.38;4.88;;;;;;;11.81;72.46;95392.94;5112537;28;20035;-77
2022/04/13 08:24:36;;;;;;;11.02;4.35;;;;;;;11.86;72.85;95395.50;5093258;28;20048;-76
2022/04/13 08:27:01;;;;;;;9.45;4.57;;;;;;;12.03;69.43;95394.31;5101004;28;20122;-76
2022/04/13 08:29:27;;;;;;;10.85;4.50;;;;;;;12.20;70.77;95394.66;5091964;28;20055;-76
2022/04/13 08:31:52;;;;;;;12.82;4.85;;;;;;;12.12;71.53;95393.44;5091308;28;20093;-76
2022/04/13 08:34:18;;;;;;;9.80;4.10;;;;;;;12.08;69.36;95402.97;5091072;28;20047;-76
2022/04/13 08:36:43;;;;;;;10.10;4.03;;;;;;;12.19;67.36;95395.72;5091589;28;20622;-77
2022/04/13 08:39:13;;;;;;;8.40;3.78;;;;;;;12.35;67.07;95403.44;5091632;28;20098;-77
2022/04/13 08:41:51;;;;;;;10.23;4.45;;;;;;;12.54;67.58;95406.91;5092034;28;20127;-74
2022/04/13 08:44:22;;;;;;;14.70;4.95;;;;;;;12.67;67.61;95407.25;5090972;28;20040;-77
2022/04/13 08:46:50;;;;;;;8.82;4.03;;;;;;;12.90;65.97;95401.16;5091574;28;20123;-77
2022/04/13 08:49:17;;;;;;;8.68;4.30;;;;;;;12.91;65.82;95407.97;5091209;28;20036;-76
2022/04/13 08:51:44;;;;;;;14.02;4.18;;;;;;;13.10;64.75;95409.81;5091290;28;20579;-76
2022/04/13 08:54:17;;;;;;;12.70;4.07;;;;;;;13.28;65.85;95411.66;5091103;28;20048;-76
2022/04/13 08:56:48;;;;;;;10.68;3.58;;;;;;;13.43;65.54;95412.50;5091221;28;20063;-76
2022/04/13 08:59:32;;;;;;;8.35;3.90;;;;;;;13.62;65.88;95410.63;5072958;28;20071;-78
2022/04/13 09:02:14;;;;;;;6.00;3.50;;;;;;;13.48;61.40;95409.81;5091265;28;20036;-76
2022/04/13 09:04:45;;;;;;;7.97;3.63;;;;;;;13.73;58.40;95405.16;5094241;28;20054;-76
2022/04/13 09:07:13;;;;;;;11.73;4.10;;;;;;;13.98;58.52;95412.63;5101662;28;20070;-77
2022/04/13 09:09:44;;;;;;;11.07;3.45;;;;;;;14.10;59.74;95408.72;5094406;28;20207;-77
2022/04/13 09:12:12;;;;;;;9.27;3.50;;;;;;;14.17;57.55;95401.16;5093704;28;20044;-77
2022/04/13 09:14:39;;;;;;;10.15;3.80;;;;;;;14.23;57.23;95407.91;5104860;28;20044;-77
2022/04/13 09:17:05;;;;;;;8.27;3.28;;;;;;;14.42;59.07;95404.38;5075853;28;20043;-77
2022/04/13 09:19:32;;;;;;;9.25;3.90;;;;;;;14.58;60.22;95402.97;5102118;28;20112;-77
2022/04/13 09:21:59;;;;;;;10.07;3.60;;;;;;;15.03;54.33;95408.38;5106223;28;20032;-77
2022/04/13 09:24:27;;;;;;;7.55;3.50;;;;;;;14.81;56.10;95406.50;5096987;28;20052;-77
2022/04/13 09:26:54;;;;;;;7.97;3.22;;;;;;;14.70;56.56;95400.63;5107465;28;20666;-76
2022/04/13 09:29:19;;;;;;;9.98;3.67;;;;;;;14.83;56.69;95398.25;5094070;28;20103;-77
2022/04/13 09:31:46;;;;;;;15.65;3.70;;;;;;;14.94;56.50;95404.91;5092197;28;20051;-81
2022/04/13 09:34:14;;;;;;;7.65;3.50;;;;;;;14.99;56.24;95411.94;5102357;28;20043;-77
2022/04/13 09:36:41;;;;;;;11.65;3.83;;;;;;;15.01;55.15;95405.28;5104333;28;20039;-77
2022/04/13 09:39:07;;;;;;;12.30;3.65;;;;;;;15.09;54.89;95406.41;5091227;28;20044;-75
2022/04/13 09:41:38;;;;;;;12.43;3.88;;;;;;;15.27;54.32;95406.53;5103898;28;20101;-72
2022/04/13 09:44:15;;;;;;;10.40;3.80;;;;;;;15.37;54.80;95400.97;5090116;28;20557;-73
2022/04/13 09:46:42;;;;;;;7.22;3.85;;;;;;;15.54;53.77;95400.31;5089654;28;20039;-74
2022/04/13 09:49:08;;;;;;;11.32;3.58;;;;;;;15.61;53.30;95405.97;5090258;28;20040;-73
2022/04/13 09:51:38;;;;;;;7.53;3.55;;;;;;;15.76;52.72;95402.94;5093594;28;20055;-74
2022/04/13 09:54:08;;;;;;;12.43;4.05;;;;;;;16.00;52.88;95401.81;5097957;28;20035;-75
2022/04/13 09:56:47;;;;;;;10.43;4.07;;;;;;;16.13;52.12;95404.69;5103285;28;20089;-74
2022/04/13 09:59:23;;;;;;;8.77;4.18;;;;;;;16.35;51.56;95412.56;5090636;28;20048;-74
2022/04/13 10:01:49;;;;;;;14.90;3.80;;;;;;;16.42;51.82;95407.59;5091324;28;20040;-75
2022/04/13 10:04:24;;;;;;;7.97;3.90;;;;;;;16.60;50.54;95413.69;5071622;28;20055;-74
2022/04/13 10:06:50;;;;;;;6.97;3.70;;;;;;;16.65;50.84;95410.13;5078676;28;20043;-75
2022/04/13 10:09:15;;;;;;;11.45;3.85;;;;;;;16.71;50.95;95408.88;5101327;28;20515;-75
2022/04/13 10:12:03;;;;;;;12.02;4.40;;;;;;;17.01;50.94;95401.13;5089666;28;20504;-74
2022/04/13 10:14:30;;;;;;;10.65;4.70;;;;;;;17.26;51.07;95406.75;5109955;28;20039;-74
2022/04/13 10:17:09;;;;;;;12.18;4.63;;;;;;;17.47;49.57;95396.25;5108034;28;20046;-74
2022/04/13 10:19:35;;;;;;;9.55;4.25;;;;;;;18.24;50.28;95400.84;5095757;28;20044;-74
2022/04/13 10:22:01;;;;;;;15.15;6.13;;;;;;;18.60;47.49;95402.22;5078549;28;20582;-74
2022/04/13 10:24:30;;;;;;;11.43;5.35;;;;;;;19.04;45.89;95400.06;5095896;28;20070;-74
2022/04/13 10:27:09;;;;;;;11.65;5.18;;;;;;;18.48;46.20;95401.03;5089628;28;20040;-73
2022/04/13 10:29:40;;;;;;;15.80;6.03;;;;;;;19.41;46.25;95386.88;5108196;28;20062;-73
2022/04/13 10:32:19;;;;;;;15.10;6.68;;;;;;;19.78;45.84;95389.63;5108584;28;20032;-73
2022/04/13 10:34:49;;;;;;;15.45;6.63;;;;;;;20.03;44.59;95389.72;5104573;28;20509;-73
2022/04/13 10:37:18;;;;;;;15.35;7.43;;;;;;;19.74;45.32;95388.75;5090916;28;20036;-73
2022/04/13 10:39:47;;;;;;;12.73;7.68;;;;;;;19.52;45.21;95385.38;5106912;28;20050;-73
2022/04/13 10:42:15;;;;;;;17.45;7.57;;;;;;;19.92;44.65;95380.56;5105384;27;20067;-78
2022/04/13 10:45:03;;;;;;;15.82;7.80;;;;;;;19.67;45.28;95380.50;5095903;28;20089;-75
2022/04/13 10:47:31;;;;;;;20.10;7.70;;;;;;;20.22;44.10;95384.59;5104319;28;20110;-71
2022/04/13 10:50:00;;;;;;;16.92;7.75;;;;;;;20.94;43.69;95378.72;5110838;27;20067;-72
2022/04/13 10:52:32;;;;;;;12.73;7.30;;;;;;;21.21;42.89;95375.63;5101421;28;20052;-73
2022/04/13 10:55:05;;;;;;;18.85;8.52;;;;;;;21.07;42.98;95381.34;5105256;28;20052;-73
2022/04/13 10:57:45;;;;;;;14.90;8.77;;;;;;;19.97;44.60;95375.00;5105198;28;20040;-72
2022/04/13 11:00:16;;;;;;;15.02;8.70;;;;;;;20.29;45.29;95378.69;5097788;28;20520;-73
2022/04/13 11:03:03;;;;;;;15.70;9.60;;;;;;;20.54;44.35;95376.78;5094071;28;20039;-73
2022/04/13 11:05:30;;;;;;;17.90;10.45;;;;;;;20.82;44.01;95376.09;5100498;28;20739;-73
2022/04/13 11:07:59;;;;;;;16.55;10.25;;;;;;;20.54;42.78;95368.78;5097958;28;20051;-74
2022/04/13 11:10:25;;;;;;;23.40;9.43;;;;;;;20.65;44.36;95376.31;5109284;28;20493;-73
2022/04/13 11:12:52;;;;;;;22.05;10.63;;;;;;;20.57;44.62;95376.09;5091805;28;20036;-73
2022/04/13 11:15:37;;;;;;;22.10;11.05;;;;;;;20.80;42.29;95378.31;5109300;28;20147;-73
2022/04/13 11:18:16;;;;;;;15.70;9.57;;;;;;;21.27;43.48;95369.66;5093031;28;20480;-73
2022/04/13 11:21:00;;;;;;;15.25;10.00;;;;;;;21.27;42.41;95364.31;5071529;28;20048;-73
2022/04/13 11:23:51;;;;;;;18.75;9.48;;;;;;;21.83;40.65;95373.44;5106156;28;20118;-73
2022/04/13 11:26:44;;;;;;;13.52;8.02;;;;;;;21.90;41.18;95373.59;5075174;28;20035;-73
2022/04/13 11:29:09;;;;;;;16.98;10.10;;;;;;;21.75;41.34;95367.13;5085432;28;20436;-73
2022/04/13 11:32:00;;;;;;;17.98;10.32;;;;;;;21.95;40.31;95365.31;5108866;28;20047;-73
2022/04/13 11:34:28;;;;;;;14.90;9.82;;;;;;;22.56;40.37;95365.94;5109106;28;20585;-73
2022/04/13 11:36:58;;;;;;;16.13;9.52;;;;;;;21.81;40.98;95364.97;5099035;28;20240;-73